Time;durP1;ratioP1;P1;durP2;ratioP2;P2;SDS_P1;SDS_P2;PMS_P1;PMS_P2;Temp;Humidity;BMP_temperature;BMP_pressure;BME280_temperature;BME280_humidity;BME280_pressure;Samples;Min_cycle;Max_cycle;Signal;HPM_P1;HPM_P2
2021/12/26 00:01:31;;;;;;;175.10;84.03;;;9.20;99.90;;;;;;5116066;28;20031;-62
2021/12/26 00:03:57;;;;;;;175.10;86.88;;;9.10;99.90;;;;;;5115753;28;20028;-62
2021/12/26 00:06:26;;;;;;;161.13;84.15;;;9.10;99.90;;;;;;5115825;28;20027;-62
2021/12/26 00:08:54;;;;;;;159.90;81.38;;;9.10;99.90;;;;;;5115885;28;20038;-62
2021/12/26 00:11:20;;;;;;;177.85;92.00;;;9.10;99.90;;;;;;5115651;28;20030;-62
2021/12/26 00:13:47;;;;;;;165.45;86.82;;;9.10;99.90;;;;;;5096657;28;20059;-62
2021/12/26 00:16:13;;;;;;;177.85;88.10;;;9.10;99.90;;;;;;5095533;28;20036;-62
2021/12/26 00:18:45;;;;;;;165.50;88.45;;;9.10;99.90;;;;;;5095084;28;20032;-62
2021/12/26 00:21:13;;;;;;;170.00;89.25;;;9.10;99.90;;;;;;5095206;28;20052;-62
2021/12/26 00:23:39;;;;;;;162.30;85.32;;;9.00;99.90;;;;;;5094952;28;20016;-62
2021/12/26 00:26:05;;;;;;;137.57;73.63;;;9.00;99.90;;;;;;5094882;28;20061;-62
2021/12/26 00:28:31;;;;;;;154.82;83.70;;;9.00;99.90;;;;;;5094907;28;20054;-62
2021/12/26 00:30:58;;;;;;;151.63;81.72;;;9.00;99.90;;;;;;5095159;28;20024;-62
2021/12/26 00:33:25;;;;;;;159.70;81.20;;;9.00;99.90;;;;;;5076610;28;20035;-62
2021/12/26 00:35:52;;;;;;;141.77;75.43;;;9.00;99.90;;;;;;5094824;28;20420;-62
2021/12/26 00:38:18;;;;;;;144.68;76.40;;;9.00;99.90;;;;;;5076572;28;20453;-62
2021/12/26 00:40:44;;;;;;;156.45;81.05;;;9.00;99.90;;;;;;5094727;28;20056;-62
2021/12/26 00:43:11;;;;;;;148.82;76.93;;;9.00;99.90;;;;;;5076576;28;20051;-62
2021/12/26 00:45:39;;;;;;;145.93;78.90;;;9.00;99.90;;;;;;5094524;28;20457;-62
2021/12/26 00:48:07;;;;;;;161.10;86.68;;;8.90;99.90;;;;;;5094497;28;20413;-62
2021/12/26 00:50:34;;;;;;;170.38;88.10;;;8.90;99.90;;;;;;5076428;28;20031;-62
2021/12/26 00:53:01;;;;;;;138.55;74.30;;;8.90;99.90;;;;;;5094360;28;20093;-62
2021/12/26 00:55:29;;;;;;;146.50;76.18;;;8.80;99.90;;;;;;5094440;28;20115;-62
2021/12/26 00:57:56;;;;;;;128.52;70.25;;;8.90;99.90;;;;;;5076517;28;20024;-62
2021/12/26 01:00:29;;;;;;;123.10;65.35;;;8.80;99.90;;;;;;5094474;28;20031;-62
2021/12/26 01:02:57;;;;;;;146.98;76.22;;;8.90;99.90;;;;;;5076675;28;20384;-62
2021/12/26 01:05:24;;;;;;;140.07;71.93;;;8.80;99.90;;;;;;5076280;28;20031;-62
2021/12/26 01:07:57;;;;;;;116.85;63.03;;;8.80;99.90;;;;;;5076145;28;20028;-62
2021/12/26 01:10:29;;;;;;;111.68;56.58;;;8.80;99.90;;;;;;5075854;28;20028;-62
2021/12/26 01:12:55;;;;;;;116.53;62.42;;;8.80;99.90;;;;;;5076221;28;20060;-62
2021/12/26 01:15:24;;;;;;;128.80;67.35;;;8.80;99.90;;;;;;5076120;28;20039;-62
2021/12/26 01:17:56;;;;;;;157.23;75.93;;;8.70;99.90;;;;;;5076226;28;20110;-62
2021/12/26 01:20:56;;;;;;;225.38;99.35;;;8.70;99.90;;;;;;5076091;28;20123;-62
2021/12/26 01:23:20;;;;;;;154.68;75.72;;;8.70;99.90;;;;;;5075959;28;20432;-62
2021/12/26 01:25:47;;;;;;;129.43;65.25;;;8.70;99.90;;;;;;5073227;28;20036;-62
2021/12/26 01:28:14;;;;;;;134.73;68.60;;;8.70;99.90;;;;;;5075958;28;20059;-62
2021/12/26 01:30:41;;;;;;;137.68;64.35;;;8.70;99.90;;;;;;5075966;28;20508;-62
2021/12/26 01:33:11;;;;;;;131.57;68.75;;;8.70;99.90;;;;;;5075846;28;20035;-62
2021/12/26 01:36:06;;;;;;;126.80;65.00;;;8.70;99.90;;;;;;5021537;28;20121;-62
2021/12/26 01:39:00;;;;;;;103.97;55.47;;;8.70;99.90;;;;;;5091027;28;20040;-62
2021/12/26 01:41:53;;;;;;;115.82;59.67;;;8.80;99.90;;;;;;5093885;28;20036;-62
2021/12/26 01:44:34;;;;;;;;;;;8.70;99.90;;;;;;5094664;28;20028;-62
2021/12/26 01:47:05;;;;;;;131.32;68.38;;;8.70;99.90;;;;;;5076044;28;19952;-62
2021/12/26 01:49:35;;;;;;;87.50;50.25;;;8.70;99.90;;;;;;5075672;28;20054;-62
2021/12/26 01:52:03;;;;;;;103.97;57.05;;;8.60;99.90;;;;;;5075867;28;20024;-62
2021/12/26 01:54:59;;;;;;;100.13;54.53;;;8.70;99.90;;;;;;5075766;28;20028;-62
2021/12/26 01:57:25;;;;;;;102.13;55.88;;;8.60;99.90;;;;;;5075883;28;20035;-62
2021/12/26 01:59:51;;;;;;;105.53;58.35;;;8.50;99.90;;;;;;5075735;28;20028;-62
2021/12/26 02:02:22;;;;;;;78.05;47.10;;;8.50;99.90;;;;;;5075986;28;20024;-62
2021/12/26 02:04:49;;;;;;;85.75;46.58;;;8.60;99.90;;;;;;5075603;28;20036;-62
2021/12/26 02:07:19;;;;;;;99.63;55.70;;;8.60;99.90;;;;;;5075871;28;20032;-62
2021/12/26 02:09:47;;;;;;;94.32;52.28;;;8.60;99.90;;;;;;5075603;28;20031;-62
2021/12/26 02:12:18;;;;;;;89.95;52.75;;;8.60;99.90;;;;;;5075507;28;20035;-62
2021/12/26 02:14:45;;;;;;;91.57;53.72;;;8.60;99.90;;;;;;5075753;28;20054;-62
2021/12/26 02:17:28;;;;;;;109.30;55.83;;;8.60;99.90;;;;;;5095629;28;20030;-62
2021/12/26 02:20:15;;;;;;;82.05;46.95;;;8.50;99.90;;;;;;5114100;28;20031;-62
2021/12/26 02:22:45;;;;;;;82.70;44.33;;;8.40;99.90;;;;;;5097403;28;20043;-62
2021/12/26 02:25:29;;;;;;;102.05;51.97;;;8.50;99.90;;;;;;5099634;28;20043;-62
2021/12/26 02:27:55;;;;;;;126.65;65.22;;;8.50;99.90;;;;;;5099215;28;20058;-62
2021/12/26 02:30:23;;;;;;;145.65;72.35;;;8.40;99.90;;;;;;5099305;28;20485;-62
2021/12/26 02:32:52;;;;;;;116.22;63.47;;;8.40;99.90;;;;;;5099214;28;20036;-62
2021/12/26 02:35:22;;;;;;;130.90;72.03;;;8.40;99.90;;;;;;5099116;28;20439;-62
2021/12/26 02:37:48;;;;;;;135.13;72.15;;;8.40;99.90;;;;;;5099355;28;20110;-62
2021/12/26 02:40:16;;;;;;;120.15;65.80;;;8.30;99.90;;;;;;5117473;28;20066;-62
2021/12/26 02:42:43;;;;;;;145.13;79.00;;;8.30;99.90;;;;;;5099100;28;20103;-62
2021/12/26 02:45:09;;;;;;;128.38;68.65;;;8.30;99.90;;;;;;5117387;28;20460;-62
2021/12/26 02:47:44;;;;;;;119.72;66.78;;;8.20;99.90;;;;;;5098964;28;20437;-62
2021/12/26 02:50:17;;;;;;;121.10;66.65;;;8.20;99.90;;;;;;5099115;28;20542;-62
2021/12/26 02:52:44;;;;;;;125.78;66.30;;;8.20;99.90;;;;;;5099044;28;20031;-62
2021/12/26 02:55:11;;;;;;;127.43;67.95;;;8.20;99.90;;;;;;5098738;28;20185;-62
2021/12/26 02:57:38;;;;;;;133.60;68.05;;;8.20;99.90;;;;;;5117205;28;20096;-62
2021/12/26 03:00:15;;;;;;;166.68;79.97;;;8.20;99.90;;;;;;5098826;28;20023;-62
2021/12/26 03:02:42;;;;;;;255.35;105.22;;;8.20;99.90;;;;;;5098801;28;20042;-62
2021/12/26 03:05:09;;;;;;;237.05;105.93;;;8.20;99.90;;;;;;5098716;28;20099;-62
2021/12/26 03:07:35;;;;;;;183.00;86.32;;;8.20;99.90;;;;;;5098589;28;20059;-62
2021/12/26 03:10:01;;;;;;;209.20;95.93;;;8.20;99.90;;;;;;5098485;28;20039;-62
2021/12/26 03:12:29;;;;;;;169.68;81.80;;;8.10;99.90;;;;;;5090767;28;20085;-62
2021/12/26 03:14:55;;;;;;;150.65;72.07;;;8.20;99.90;;;;;;5096268;28;20032;-62
2021/12/26 03:17:22;;;;;;;166.75;82.85;;;8.20;99.90;;;;;;5101264;28;20011;-62
2021/12/26 03:19:48;;;;;;;131.07;70.30;;;8.20;99.90;;;;;;5116773;28;20461;-62
2021/12/26 03:22:15;;;;;;;120.50;61.42;;;8.20;99.90;;;;;;5116617;28;20027;-62
2021/12/26 03:24:43;;;;;;;111.80;62.13;;;8.30;99.90;;;;;;5116298;28;20423;-62
2021/12/26 03:27:11;;;;;;;97.25;54.92;;;8.30;99.90;;;;;;5098250;28;20136;-62
2021/12/26 03:29:37;;;;;;;85.15;50.92;;;8.20;99.90;;;;;;5098090;28;20051;-62
2021/12/26 03:32:09;;;;;;;95.90;55.38;;;8.20;99.90;;;;;;5097997;28;20059;-63
2021/12/26 03:34:43;;;;;;;100.68;56.65;;;8.20;99.90;;;;;;5097821;28;20500;-62
2021/12/26 03:37:09;;;;;;;106.00;56.45;;;8.20;99.90;;;;;;5115096;28;20307;-63
2021/12/26 03:39:35;;;;;;;119.75;62.42;;;8.20;99.90;;;;;;5098097;28;20119;-63
2021/12/26 03:42:01;;;;;;;141.75;70.13;;;8.20;99.90;;;;;;5116178;28;20188;-63
2021/12/26 03:44:28;;;;;;;215.75;95.60;;;8.20;99.90;;;;;;5097773;28;20034;-62
2021/12/26 03:46:54;;;;;;;207.13;91.55;;;8.20;99.90;;;;;;5097935;28;20114;-62
2021/12/26 03:49:21;;;;;;;206.82;97.18;;;8.20;99.90;;;;;;5097588;28;20035;-63
2021/12/26 03:51:47;;;;;;;156.95;78.88;;;8.10;99.90;;;;;;5097619;28;20032;-62
2021/12/26 03:54:16;;;;;;;128.50;67.78;;;8.10;99.90;;;;;;5097811;28;20035;-62
2021/12/26 03:56:43;;;;;;;129.88;66.05;;;8.20;99.90;;;;;;5097491;28;20046;-62
2021/12/26 03:59:16;;;;;;;134.25;68.40;;;8.20;99.90;;;;;;5097739;28;20074;-63
2021/12/26 04:01:42;;;;;;;129.90;69.70;;;8.20;99.90;;;;;;5097716;28;20034;-63
2021/12/26 04:04:08;;;;;;;109.70;55.88;;;8.20;99.90;;;;;;5097541;28;20030;-63
2021/12/26 04:06:34;;;;;;;95.03;51.35;;;8.10;99.90;;;;;;5097507;28;20387;-63
2021/12/26 04:09:00;;;;;;;89.07;48.13;;;8.10;99.90;;;;;;5097510;28;20023;-63
2021/12/26 04:11:26;;;;;;;134.13;66.30;;;8.10;99.90;;;;;;5097444;28;20031;-63
2021/12/26 04:13:52;;;;;;;141.13;72.65;;;8.10;99.90;;;;;;5095720;28;20024;-63
2021/12/26 04:16:18;;;;;;;175.38;83.80;;;8.10;99.90;;;;;;5093989;28;20261;-63
2021/12/26 04:18:45;;;;;;;154.73;75.78;;;8.10;99.90;;;;;;5093368;28;20024;-62
2021/12/26 04:21:12;;;;;;;141.15;72.78;;;8.00;99.90;;;;;;5097268;28;20019;-63
2021/12/26 04:23:48;;;;;;;127.93;66.68;;;8.00;99.90;;;;;;5097060;28;20028;-63
2021/12/26 04:26:14;;;;;;;123.45;65.40;;;8.10;99.90;;;;;;5115504;28;20076;-62
2021/12/26 04:28:40;;;;;;;154.35;79.88;;;8.10;99.90;;;;;;5097117;28;20434;-63
2021/12/26 04:31:07;;;;;;;145.57;73.63;;;8.10;99.90;;;;;;5096994;28;20030;-63
2021/12/26 04:33:34;;;;;;;143.93;75.63;;;8.10;99.90;;;;;;5096820;28;20060;-63
2021/12/26 04:36:00;;;;;;;167.18;85.00;;;8.10;99.90;;;;;;5096993;28;20457;-63
2021/12/26 04:38:26;;;;;;;134.00;67.57;;;8.00;99.90;;;;;;5096794;28;20449;-63
2021/12/26 04:40:52;;;;;;;120.13;64.18;;;8.00;99.90;;;;;;5115004;28;20011;-63
2021/12/26 04:43:23;;;;;;;132.10;70.13;;;8.00;99.90;;;;;;5115238;28;20481;-63
2021/12/26 04:46:12;;;;;;;135.73;67.90;;;8.00;99.90;;;;;;5105845;28;20035;-63
2021/12/26 04:48:45;;;;;;;139.02;70.80;;;8.10;99.90;;;;;;5114879;28;20047;-63
2021/12/26 04:51:12;;;;;;;122.70;63.78;;;8.10;99.90;;;;;;5096834;28;20053;-63
2021/12/26 04:53:40;;;;;;;125.40;64.25;;;8.00;99.90;;;;;;5096556;28;20667;-61
2021/12/26 04:56:07;;;;;;;105.00;55.47;;;8.00;99.90;;;;;;5096622;28;20023;-63
2021/12/26 04:58:34;;;;;;;111.45;58.45;;;8.00;99.90;;;;;;5096719;28;20024;-63
2021/12/26 05:01:00;;;;;;;102.40;55.17;;;8.00;99.90;;;;;;5114906;28;20032;-63
2021/12/26 05:03:26;;;;;;;104.63;55.90;;;8.00;99.90;;;;;;5114787;28;20035;-63
2021/12/26 05:05:52;;;;;;;108.07;58.90;;;8.00;99.90;;;;;;5114922;28;20103;-63
2021/12/26 05:08:18;;;;;;;100.55;58.00;;;8.00;99.90;;;;;;5115006;28;20042;-63
2021/12/26 05:10:44;;;;;;;115.20;59.72;;;8.10;99.90;;;;;;5096423;28;20027;-63
2021/12/26 05:13:10;;;;;;;113.53;60.22;;;8.10;99.90;;;;;;5100987;28;20031;-63
2021/12/26 05:15:37;;;;;;;107.80;59.75;;;8.10;99.90;;;;;;5094424;28;20039;-63
2021/12/26 05:18:05;;;;;;;82.70;46.80;;;8.00;99.90;;;;;;5104929;28;20107;-63
2021/12/26 05:20:32;;;;;;;72.25;42.03;;;8.00;99.90;;;;;;5096553;28;20024;-63
2021/12/26 05:22:58;;;;;;;90.13;50.90;;;8.10;99.90;;;;;;5096429;28;20024;-63
2021/12/26 05:25:26;;;;;;;92.60;48.65;;;8.10;99.90;;;;;;5114503;28;20023;-63
2021/12/26 05:27:53;;;;;;;101.80;55.20;;;8.00;99.90;;;;;;5096277;28;20105;-63
2021/12/26 05:30:22;;;;;;;107.45;51.42;;;8.00;99.90;;;;;;5096207;28;20038;-63
2021/12/26 05:32:58;;;;;;;88.53;45.75;;;8.00;99.90;;;;;;5096536;28;20042;-63
2021/12/26 05:35:26;;;;;;;80.43;41.33;;;8.00;99.90;;;;;;5096375;28;20027;-63
2021/12/26 05:37:52;;;;;;;80.72;44.03;;;8.10;99.90;;;;;;5096184;28;20028;-63
2021/12/26 05:40:18;;;;;;;96.20;47.97;;;8.20;99.90;;;;;;5096488;28;20073;-63
2021/12/26 05:42:44;;;;;;;82.28;41.72;;;8.10;99.90;;;;;;5096175;28;20038;-63
2021/12/26 05:45:11;;;;;;;89.32;43.45;;;8.10;99.90;;;;;;5096216;28;20466;-63
2021/12/26 05:47:50;;;;;;;76.15;40.38;;;8.10;99.90;;;;;;5096144;28;20401;-63
2021/12/26 05:50:19;;;;;;;81.30;41.38;;;8.10;99.90;;;;;;5096248;28;20393;-63
2021/12/26 05:52:46;;;;;;;79.68;41.03;;;8.20;99.90;;;;;;5096077;28;20024;-63
2021/12/26 05:55:16;;;;;;;87.97;45.45;;;8.10;99.90;;;;;;5096071;28;20039;-63
2021/12/26 05:57:44;;;;;;;72.95;37.72;;;8.10;99.90;;;;;;5099731;28;20020;-63
2021/12/26 06:00:13;;;;;;;59.45;33.58;;;8.10;99.90;;;;;;5118290;28;20031;-63
2021/12/26 06:02:42;;;;;;;59.35;33.22;;;8.20;99.90;;;;;;5118838;28;20027;-64
2021/12/26 06:05:09;;;;;;;48.97;27.13;;;8.20;99.90;;;;;;5099921;28;20043;-63
2021/12/26 06:07:36;;;;;;;60.05;32.20;;;8.30;99.90;;;;;;5099808;28;20033;-63
2021/12/26 06:10:05;;;;;;;55.85;30.83;;;8.30;99.90;;;;;;5099959;28;20047;-63
2021/12/26 06:12:33;;;;;;;46.90;28.73;;;8.20;99.90;;;;;;5091060;28;20370;-63
2021/12/26 06:14:59;;;;;;;57.85;30.27;;;8.30;99.90;;;;;;5113293;28;20042;-63
2021/12/26 06:17:28;;;;;;;65.32;34.25;;;8.30;99.90;;;;;;5085128;28;20058;-63
2021/12/26 06:20:05;;;;;;;150.88;63.67;;;8.30;99.90;;;;;;5117926;28;20026;-63
2021/12/26 06:22:37;;;;;;;120.07;51.60;;;8.30;99.90;;;;;;5099690;28;20028;-63
2021/12/26 06:25:22;;;;;;;83.70;37.53;;;8.30;99.90;;;;;;5117387;28;20062;-63
2021/12/26 06:28:03;;;;;;;96.05;43.13;;;8.30;99.90;;;;;;5098978;28;20522;-63
2021/12/26 06:30:32;;;;;;;121.97;58.00;;;8.30;99.90;;;;;;5117971;28;20042;-63
2021/12/26 06:33:16;;;;;;;134.10;64.60;;;8.30;99.90;;;;;;5117765;28;20066;-63
2021/12/26 06:35:45;;;;;;;133.07;66.10;;;8.40;99.90;;;;;;5117744;28;20434;-63
2021/12/26 06:38:31;;;;;;;137.50;69.07;;;8.30;99.90;;;;;;5117795;28;20035;-63
2021/12/26 06:41:16;;;;;;;125.07;61.33;;;8.40;99.90;;;;;;5117731;28;20070;-63
2021/12/26 06:44:02;;;;;;;99.78;50.42;;;8.40;99.90;;;;;;5075493;28;20373;-64
2021/12/26 06:46:49;;;;;;;61.75;35.83;;;8.40;99.90;;;;;;5106129;28;20032;-64
2021/12/26 06:49:29;;;;;;;63.47;32.90;;;8.50;99.90;;;;;;5098822;28;20086;-63
2021/12/26 06:51:55;;;;;;;49.08;27.90;;;8.50;99.90;;;;;;5099147;28;20039;-63
2021/12/26 06:54:23;;;;;;;45.08;24.23;;;8.50;99.90;;;;;;5117269;28;20032;-65
2021/12/26 06:56:50;;;;;;;24.48;15.32;;;8.50;99.90;;;;;;5117517;28;20031;-64
2021/12/26 06:59:16;;;;;;;29.15;15.45;;;8.50;99.90;;;;;;5117392;28;20044;-63
2021/12/26 07:01:42;;;;;;;23.55;14.57;;;8.40;99.90;;;;;;5099071;28;20540;-64
2021/12/26 07:04:10;;;;;;;22.20;14.18;;;8.30;99.90;;;;;;5098678;28;20044;-64
2021/12/26 07:06:37;;;;;;;20.25;14.63;;;8.30;99.90;;;;;;5115857;28;20035;-64
2021/12/26 07:09:08;;;;;;;41.10;28.50;;;8.30;99.90;;;;;;5097707;28;20031;-63
2021/12/26 07:11:34;;;;;;;21.63;15.60;;;8.30;99.90;;;;;;5098084;28;20031;-64
2021/12/26 07:14:01;;;;;;;19.85;14.82;;;8.30;99.90;;;;;;5095332;28;20436;-64
2021/12/26 07:16:28;;;;;;;23.77;14.95;;;8.30;99.90;;;;;;5078257;28;20036;-64
2021/12/26 07:18:55;;;;;;;19.20;13.00;;;8.30;99.90;;;;;;5096057;28;20043;-64
2021/12/26 07:21:29;;;;;;;13.23;10.32;;;8.30;99.90;;;;;;5098517;28;20123;-64
2021/12/26 07:24:03;;;;;;;21.80;13.80;;;8.30;99.90;;;;;;5097970;28;20035;-64
2021/12/26 07:26:29;;;;;;;15.32;11.95;;;8.30;99.90;;;;;;5095480;28;20054;-64
2021/12/26 07:28:55;;;;;;;16.55;9.82;;;8.20;99.90;;;;;;5078050;28;20050;-64
2021/12/26 07:31:23;;;;;;;15.02;10.02;;;8.20;99.90;;;;;;5077660;28;20095;-64
2021/12/26 07:33:52;;;;;;;12.85;10.13;;;8.20;99.90;;;;;;5077946;28;20149;-64
2021/12/26 07:36:19;;;;;;;15.18;12.20;;;8.20;99.90;;;;;;5078125;28;20024;-64
2021/12/26 07:39:14;;;;;;;12.25;9.35;;;8.30;99.90;;;;;;5093254;28;20446;-64
2021/12/26 07:41:40;;;;;;;13.23;9.55;;;8.30;99.90;;;;;;5094497;28;20373;-64
2021/12/26 07:44:26;;;;;;;14.77;9.35;;;8.20;99.90;;;;;;5095831;28;20100;-64
2021/12/26 07:47:15;;;;;;;19.05;15.10;;;8.20;99.90;;;;;;5084624;28;20610;-64
2021/12/26 07:49:42;;;;;;;13.55;11.13;;;8.30;99.90;;;;;;5077822;28;20036;-64
2021/12/26 07:52:31;;;;;;;16.60;14.80;;;8.20;99.90;;;;;;5095901;28;20100;-64
2021/12/26 07:55:16;;;;;;;22.50;20.23;;;8.40;99.90;;;;;;5095972;28;20129;-64
2021/12/26 07:58:01;;;;;;;16.50;14.80;;;8.40;99.90;;;;;;5095781;28;20043;-64
2021/12/26 08:00:45;;;;;;;16.98;12.40;;;8.40;99.90;;;;;;5095633;28;20489;-64
2021/12/26 08:03:37;;;;;;;16.08;13.10;;;8.50;99.90;;;;;;5091411;28;20024;-64
2021/12/26 08:06:22;;;;;;;15.45;12.07;;;8.60;99.90;;;;;;5095488;28;20453;-65
2021/12/26 08:08:52;;;;;;;16.42;12.32;;;8.60;99.90;;;;;;5077083;28;20089;-64
2021/12/26 08:11:18;;;;;;;19.38;13.55;;;8.70;99.90;;;;;;5077332;28;20123;-64
2021/12/26 08:13:45;;;;;;;15.13;12.13;;;8.80;99.90;;;;;;5058881;28;20481;-62
2021/12/26 08:16:11;;;;;;;43.30;25.85;;;8.90;99.90;;;;;;5075006;28;20549;-64
2021/12/26 08:18:37;;;;;;;28.38;17.38;;;9.00;99.90;;;;;;5074750;28;20119;-64
2021/12/26 08:21:03;;;;;;;18.10;12.57;;;8.90;99.90;;;;;;5074852;28;20052;-64
2021/12/26 08:23:29;;;;;;;24.95;17.42;;;8.80;99.90;;;;;;5074897;28;20039;-64
2021/12/26 08:25:56;;;;;;;22.83;14.73;;;8.80;99.90;;;;;;5075052;28;20028;-64
2021/12/26 08:28:22;;;;;;;22.52;16.45;;;8.70;99.90;;;;;;5092969;28;20068;-64
2021/12/26 08:30:48;;;;;;;26.75;16.90;;;8.70;99.90;;;;;;5095103;28;20481;-64
2021/12/26 08:33:15;;;;;;;26.73;17.23;;;8.60;99.90;;;;;;5094913;28;20035;-64
2021/12/26 08:35:42;;;;;;;25.48;17.92;;;8.50;99.90;;;;;;5076596;28;20423;-64
2021/12/26 08:38:09;;;;;;;39.78;25.27;;;8.50;99.90;;;;;;5095303;28;20032;-64
2021/12/26 08:40:35;;;;;;;26.45;18.05;;;8.50;99.90;;;;;;5094853;28;20397;-64
2021/12/26 08:43:02;;;;;;;33.67;21.80;;;8.70;99.90;;;;;;5094592;28;20027;-64
2021/12/26 08:45:28;;;;;;;31.83;21.98;;;8.80;99.90;;;;;;5094939;28;20031;-64
2021/12/26 08:47:55;;;;;;;36.15;22.02;;;8.90;99.90;;;;;;5094721;28;20482;-64
2021/12/26 08:50:25;;;;;;;35.25;23.42;;;8.90;99.90;;;;;;5094851;28;20424;-64
2021/12/26 08:52:52;;;;;;;29.27;19.50;;;8.90;99.90;;;;;;5094841;28;20024;-64
2021/12/26 08:55:19;;;;;;;29.65;19.83;;;9.00;99.90;;;;;;5094621;28;20045;-64
2021/12/26 08:57:46;;;;;;;37.08;20.30;;;9.00;99.90;;;;;;5094474;28;20016;-64
2021/12/26 09:00:14;;;;;;;23.15;16.73;;;8.90;99.90;;;;;;5094820;28;20378;-64
2021/12/26 09:02:40;;;;;;;24.10;17.88;;;9.00;99.90;;;;;;5094571;28;20142;-64
2021/12/26 09:05:07;;;;;;;24.08;17.20;;;9.00;99.90;;;;;;5094419;28;20377;-65
2021/12/26 09:07:33;;;;;;;31.02;18.60;;;8.90;99.90;;;;;;5094556;28;20024;-64
2021/12/26 09:10:00;;;;;;;28.33;19.15;;;8.80;99.90;;;;;;5094618;28;20111;-64
2021/12/26 09:12:27;;;;;;;30.67;19.48;;;8.80;99.90;;;;;;5086733;28;20158;-64
2021/12/26 09:14:53;;;;;;;27.10;18.35;;;8.80;99.90;;;;;;5074416;28;20051;-64
2021/12/26 09:17:19;;;;;;;26.10;18.00;;;8.70;99.90;;;;;;5073943;28;20020;-64
2021/12/26 09:19:46;;;;;;;27.25;17.80;;;8.60;99.90;;;;;;5074072;28;20478;-64
2021/12/26 09:22:15;;;;;;;35.60;22.42;;;8.70;99.90;;;;;;5074390;28;20080;-64
2021/12/26 09:24:42;;;;;;;33.90;21.30;;;8.60;99.90;;;;;;5087585;28;20429;-64
2021/12/26 09:27:09;;;;;;;39.65;21.13;;;8.60;99.90;;;;;;5094211;28;20074;-64
2021/12/26 09:29:35;;;;;;;30.83;20.25;;;8.50;99.90;;;;;;5094460;28;20244;-64
2021/12/26 09:32:02;;;;;;;33.90;20.95;;;8.40;99.90;;;;;;5096627;28;20021;-64
2021/12/26 09:34:30;;;;;;;34.67;21.85;;;8.40;99.90;;;;;;5098475;28;20490;-64
2021/12/26 09:36:57;;;;;;;33.38;22.63;;;8.40;99.90;;;;;;5098360;28;20462;-64
2021/12/26 09:39:23;;;;;;;32.30;21.17;;;8.20;99.90;;;;;;5098210;28;20020;-64
2021/12/26 09:41:52;;;;;;;37.05;21.58;;;8.10;99.90;;;;;;5098225;28;20024;-64
2021/12/26 09:44:20;;;;;;;35.25;23.17;;;8.10;99.90;;;;;;5098077;28;20032;-64
2021/12/26 09:46:46;;;;;;;46.38;27.13;;;7.90;99.90;;;;;;5098033;28;20024;-64
2021/12/26 09:49:12;;;;;;;40.60;26.23;;;7.90;99.90;;;;;;5098208;28;20035;-64
2021/12/26 09:51:38;;;;;;;47.15;28.60;;;7.90;99.90;;;;;;5098234;28;20103;-64
2021/12/26 09:54:05;;;;;;;44.42;26.90;;;7.90;99.90;;;;;;5097851;28;20039;-64
2021/12/26 09:56:32;;;;;;;42.50;26.25;;;7.80;99.90;;;;;;5097882;28;20035;-64
2021/12/26 09:59:02;;;;;;;39.45;24.27;;;7.70;99.90;;;;;;5098073;28;20020;-64
2021/12/26 10:01:34;;;;;;;32.63;20.45;;;7.70;99.90;;;;;;5097371;28;20048;-64
2021/12/26 10:04:24;;;;;;;37.80;23.55;;;7.60;99.90;;;;;;5097917;28;20035;-64
2021/12/26 10:07:04;;;;;;;38.78;22.88;;;7.70;99.90;;;;;;5086884;28;20111;-64
2021/12/26 10:09:32;;;;;;;40.57;23.87;;;7.70;99.90;;;;;;5097691;28;20161;-64
2021/12/26 10:12:01;;;;;;;35.80;21.73;;;7.60;99.90;;;;;;5094038;28;20280;-64
2021/12/26 10:14:31;;;;;;;49.28;26.83;;;7.70;99.90;;;;;;5077240;28;20047;-64
2021/12/26 10:17:03;;;;;;;47.88;26.73;;;7.60;99.90;;;;;;5077137;28;20426;-64
2021/12/26 10:19:38;;;;;;;44.53;24.88;;;7.60;99.90;;;;;;5077355;28;20421;-64
2021/12/26 10:22:05;;;;;;;44.00;25.20;;;7.60;99.90;;;;;;5076762;28;20060;-64
2021/12/26 10:24:43;;;;;;;46.35;26.77;;;7.70;99.90;;;;;;5072895;28;20054;-64
2021/12/26 10:27:12;;;;;;;42.60;25.35;;;7.80;99.90;;;;;;5085138;28;20048;-64
2021/12/26 10:29:43;;;;;;;40.60;23.90;;;7.70;99.90;;;;;;5097554;28;20110;-64
2021/12/26 10:32:14;;;;;;;42.25;23.00;;;7.60;99.90;;;;;;5097204;28;20024;-64
2021/12/26 10:34:49;;;;;;;38.60;23.05;;;7.40;99.90;;;;;;5097115;28;20039;-64
2021/12/26 10:37:42;;;;;;;38.30;24.25;;;7.20;99.90;;;;;;5078741;28;20028;-64
2021/12/26 10:40:15;;;;;;;42.10;25.58;;;7.10;99.90;;;;;;5079012;28;20032;-64
2021/12/26 10:42:48;;;;;;;44.58;26.55;;;7.00;99.90;;;;;;5077290;28;20363;-64
2021/12/26 10:45:16;;;;;;;37.63;22.80;;;6.90;99.90;;;;;;5096867;28;20089;-64
2021/12/26 10:47:48;;;;;;;38.50;22.75;;;6.80;99.90;;;;;;5096652;28;20405;-64
2021/12/26 10:50:18;;;;;;;36.45;22.45;;;6.70;99.90;;;;;;5096704;28;20032;-64
2021/12/26 10:52:57;;;;;;;39.97;22.98;;;6.60;99.90;;;;;;5096859;28;20111;-64
2021/12/26 10:55:41;;;;;;;39.67;23.88;;;6.70;99.90;;;;;;5096761;28;20032;-64
2021/12/26 10:58:09;;;;;;;43.83;25.23;;;6.50;99.90;;;;;;5096591;28;20035;-64
2021/12/26 11:00:42;;;;;;;38.90;23.52;;;6.40;99.90;;;;;;5096727;28;20505;-64
2021/12/26 11:03:29;;;;;;;40.63;24.70;;;6.30;99.90;;;;;;5096845;28;20028;-64
2021/12/26 11:06:06;;;;;;;35.63;22.23;;;6.30;99.90;;;;;;5096689;28;20039;-64
2021/12/26 11:08:41;;;;;;;42.30;23.20;;;6.10;99.90;;;;;;5096596;28;20031;-64
2021/12/26 11:11:16;;;;;;;32.95;20.25;;;6.10;99.90;;;;;;5096430;28;20028;-64
2021/12/26 11:13:43;;;;;;;38.85;20.80;;;6.00;99.90;;;;;;5096282;28;20035;-64
2021/12/26 11:16:11;;;;;;;40.30;22.30;;;6.00;99.90;;;;;;5096327;28;20032;-64
2021/12/26 11:18:37;;;;;;;43.60;22.67;;;6.00;99.90;;;;;;5096270;28;20528;-64
2021/12/26 11:21:08;;;;;;;38.35;21.52;;;6.00;99.90;;;;;;5096306;28;20507;-64
2021/12/26 11:23:36;;;;;;;40.67;23.40;;;5.90;99.90;;;;;;5091955;28;20012;-64
2021/12/26 11:26:20;;;;;;;41.95;23.67;;;5.90;99.90;;;;;;5088159;28;20115;-64
2021/12/26 11:28:50;;;;;;;42.45;23.92;;;5.80;99.90;;;;;;5075880;28;20040;-64
2021/12/26 11:31:22;;;;;;;42.60;24.38;;;5.80;99.90;;;;;;5075894;28;20052;-64
2021/12/26 11:33:54;;;;;;;42.50;25.67;;;5.80;99.90;;;;;;5075843;28;20106;-64
2021/12/26 11:36:20;;;;;;;56.45;34.33;;;5.60;99.90;;;;;;5075830;28;20032;-64
2021/12/26 11:38:58;;;;;;;44.20;25.55;;;5.50;99.90;;;;;;5057951;28;20028;-64
2021/12/26 11:42:12;;;;;;;43.20;24.45;;;5.60;99.90;;;;;;5046489;28;20028;-64
2021/12/26 11:45:28;;;;;;;38.95;22.85;;;5.50;99.90;;;;;;5038052;28;20038;-64
2021/12/26 11:48:44;;;;;;;33.20;19.92;;;5.60;99.90;;;;;;5040433;28;20064;-64
2021/12/26 11:51:45;;;;;;;36.53;22.10;;;5.50;99.90;;;;;;5075826;28;20043;-64
2021/12/26 11:54:58;;;;;;;39.95;22.65;;;5.40;99.90;;;;;;5071673;28;20040;-64
2021/12/26 11:57:51;;;;;;;35.15;20.63;;;5.30;99.90;;;;;;5041362;28;20028;-64
2021/12/26 12:00:29;;;;;;;34.50;20.13;;;5.20;99.90;;;;;;5075337;28;20028;-64
2021/12/26 12:03:00;;;;;;;36.65;20.85;;;5.10;99.90;;;;;;5075090;28;20040;-63
2021/12/26 12:05:36;;;;;;;35.85;21.58;;;5.00;99.90;;;;;;5075322;28;20052;-64
2021/12/26 12:08:25;;;;;;;37.50;22.23;;;5.10;99.90;;;;;;5075231;28;20036;-64
2021/12/26 12:10:57;;;;;;;39.40;23.67;;;5.10;99.90;;;;;;5075079;28;20032;-63
2021/12/26 12:13:26;;;;;;;37.20;23.25;;;5.10;99.90;;;;;;5075001;28;20033;-64
2021/12/26 12:15:57;;;;;;;38.53;22.25;;;5.10;99.90;;;;;;5074697;28;20110;-63
2021/12/26 12:18:28;;;;;;;43.25;25.45;;;5.00;99.90;;;;;;5081779;28;20024;-63
2021/12/26 12:21:09;;;;;;;42.05;24.52;;;4.90;99.90;;;;;;5095182;28;20038;-63
2021/12/26 12:23:39;;;;;;;40.17;23.13;;;4.70;99.90;;;;;;5094983;28;20408;-64
2021/12/26 12:26:05;;;;;;;32.10;19.57;;;4.80;99.90;;;;;;5095275;28;20035;-63
2021/12/26 12:28:40;;;;;;;33.58;20.50;;;4.80;99.90;;;;;;5094990;28;20044;-64
2021/12/26 12:31:10;;;;;;;40.05;22.55;;;4.80;99.90;;;;;;5094739;28;20050;-64
2021/12/26 12:33:38;;;;;;;51.30;26.38;;;4.70;99.90;;;;;;5076880;28;20122;-64
2021/12/26 12:36:11;;;;;;;44.03;24.50;;;4.60;99.90;;;;;;5094943;28;20028;-64
2021/12/26 12:38:44;;;;;;;47.72;25.13;;;4.60;99.90;;;;;;5095055;28;20027;-64
2021/12/26 12:41:39;;;;;;;54.63;26.65;;;4.60;99.90;;;;;;5095156;28;20078;-64
2021/12/26 12:44:27;;;;;;;55.78;26.92;;;4.50;99.90;;;;;;5094721;28;20059;-64
2021/12/26 12:46:59;;;;;;;50.88;27.40;;;4.60;99.90;;;;;;5094140;28;20036;-64
2021/12/26 12:49:50;;;;;;;77.53;38.20;;;4.60;99.90;;;;;;5094831;28;20032;-64
2021/12/26 12:52:47;;;;;;;35.13;19.93;;;4.70;99.90;;;;;;5094675;28;20390;-64
2021/12/26 12:55:22;;;;;;;50.55;25.08;;;4.70;99.90;;;;;;5088622;28;20050;-64